createdAt,value
2022-10-30T00:01:18.397Z,65.82
2022-10-30T00:03:45.786Z,66.71
2022-10-30T00:06:13.196Z,66.40
2022-10-30T00:08:40.509Z,66.46
2022-10-30T00:11:12.985Z,66.72
2022-10-30T00:13:44.736Z,66.69
2022-10-30T00:16:12.134Z,67.04
2022-10-30T00:18:42.250Z,67.78
2022-10-30T00:21:16.023Z,67.43
2022-10-30T00:23:53.250Z,67.36
2022-10-30T00:26:23.397Z,68.03
2022-10-30T00:28:55.840Z,68.30
2022-10-30T00:31:23.690Z,68.45
2022-10-30T00:33:55.586Z,67.94
2022-10-30T00:36:23.760Z,68.65
2022-10-30T00:38:51.028Z,68.65
2022-10-30T00:41:23.920Z,68.99
2022-10-30T00:43:52.290Z,68.41
2022-10-30T00:46:40.622Z,68.94
2022-10-30T00:49:16.568Z,67.99
2022-10-30T00:51:54.793Z,68.67
2022-10-30T00:54:24.477Z,68.21
2022-10-30T00:56:53.831Z,68.35
2022-10-30T00:59:32.894Z,68.68
2022-10-30T01:02:04.768Z,68.46
2022-10-30T01:04:37.869Z,68.76
2022-10-30T01:07:15.300Z,68.36
2022-10-30T01:09:43.359Z,68.63
2022-10-30T01:12:10.664Z,68.23
2022-10-30T01:14:48.185Z,68.91
2022-10-30T01:18:04.172Z,69.03
2022-10-30T01:21:21.514Z,69.18
2022-10-30T01:24:28.337Z,69.13
2022-10-30T01:28:15.655Z,69.17
2022-10-30T01:31:25.740Z,69.06
2022-10-30T01:35:00.660Z,68.74
2022-10-30T01:38:21.522Z,68.47
2022-10-30T01:40:48.797Z,68.29
2022-10-30T01:43:16.126Z,68.17
2022-10-30T01:46:51.597Z,68.62
2022-10-30T01:50:04.255Z,68.44
2022-10-30T01:52:58.499Z,68.84
2022-10-30T01:56:36.091Z,68.83
2022-10-30T01:59:17.817Z,69.06
2022-10-30T02:01:46.337Z,69.29
2022-10-30T02:04:14.239Z,69.70
2022-10-30T02:06:43.149Z,68.91
2022-10-30T02:09:10.531Z,69.07
2022-10-30T02:11:38.630Z,68.84
2022-10-30T02:14:09.029Z,68.95
2022-10-30T02:16:46.677Z,68.89
2022-10-30T02:19:13.963Z,68.93
2022-10-30T02:21:41.283Z,68.83
2022-10-30T02:24:08.547Z,68.87
2022-10-30T02:26:36.557Z,69.82
2022-10-30T02:29:03.806Z,69.68
2022-10-30T02:31:31.054Z,69.92
2022-10-30T02:33:58.379Z,70.23
2022-10-30T02:36:25.759Z,70.52
2022-10-30T02:38:55.102Z,70.23
2022-10-30T02:41:25.014Z,69.65
2022-10-30T02:43:53.700Z,70.29
2022-10-30T02:46:21.620Z,70.05
2022-10-30T02:48:48.923Z,69.58
2022-10-30T02:51:16.279Z,69.79
2022-10-30T02:53:43.771Z,69.57
2022-10-30T02:56:14.720Z,69.97
2022-10-30T02:58:42.991Z,69.74
2022-10-30T03:01:17.731Z,69.98
2022-10-30T03:03:46.530Z,69.60
2022-10-30T03:06:18.304Z,69.87
2022-10-30T03:08:46.316Z,69.98
2022-10-30T03:11:17.582Z,70.39
2022-10-30T03:13:47.979Z,70.52
2022-10-30T03:16:24.483Z,70.56
2022-10-30T03:18:53.360Z,70.61
2022-10-30T03:21:26.479Z,70.59
2022-10-30T03:23:55.086Z,70.59
2022-10-30T03:26:23.302Z,70.96
2022-10-30T03:28:50.914Z,71.21
2022-10-30T03:31:20.086Z,70.62
2022-10-30T03:33:47.527Z,71.10
2022-10-30T03:36:16.772Z,70.77
2022-10-30T03:38:44.038Z,71.03
2022-10-30T03:41:11.334Z,71.19
2022-10-30T03:43:38.623Z,71.15
2022-10-30T03:46:06.088Z,70.98
2022-10-30T03:48:33.391Z,71.39
2022-10-30T03:51:00.935Z,71.45
2022-10-30T03:53:29.697Z,71.32
2022-10-30T03:56:04.585Z,71.40
2022-10-30T03:58:31.918Z,71.21
2022-10-30T04:01:07.569Z,70.81
2022-10-30T04:03:35.271Z,70.74
2022-10-30T04:06:03.110Z,71.00
2022-10-30T04:08:30.381Z,71.18
2022-10-30T04:10:57.743Z,71.07
2022-10-30T04:13:25.454Z,71.48
2022-10-30T04:15:57.286Z,71.33
2022-10-30T04:18:26.500Z,70.68
2022-10-30T04:20:54.227Z,71.06
2022-10-30T04:23:22.664Z,70.95
2022-10-30T04:25:49.957Z,70.63
2022-10-30T04:28:17.619Z,71.77
2022-10-30T04:30:46.912Z,70.68
2022-10-30T04:33:14.804Z,70.52
2022-10-30T04:35:42.863Z,70.91
2022-10-30T04:38:16.085Z,70.52
2022-10-30T04:40:44.547Z,70.84
2022-10-30T04:43:14.035Z,70.81
2022-10-30T04:45:42.500Z,70.40
2022-10-30T04:48:18.745Z,70.53
2022-10-30T04:50:46.434Z,70.46
2022-10-30T04:53:19.315Z,70.59
2022-10-30T04:55:46.940Z,70.33
2022-10-30T04:58:14.518Z,70.27
2022-10-30T05:00:43.240Z,70.95
2022-10-30T05:03:24.607Z,70.74
2022-10-30T05:06:24.819Z,70.81
2022-10-30T05:08:52.151Z,70.97
2022-10-30T05:11:19.785Z,70.80
2022-10-30T05:13:47.067Z,70.90
2022-10-30T05:16:14.511Z,71.10
2022-10-30T05:18:41.782Z,71.34
2022-10-30T05:21:11.282Z,70.75
2022-10-30T05:23:38.644Z,71.55
2022-10-30T05:26:05.966Z,71.50
2022-10-30T05:28:34.111Z,71.12
2022-10-30T05:31:01.369Z,71.58
2022-10-30T05:33:28.675Z,71.25
2022-10-30T05:35:55.931Z,71.16
2022-10-30T05:38:23.202Z,70.92
2022-10-30T05:40:50.579Z,70.77
2022-10-30T05:43:17.847Z,70.45
2022-10-30T05:45:45.110Z,70.44
2022-10-30T05:48:12.438Z,70.82
2022-10-30T05:50:39.712Z,70.68
2022-10-30T05:53:07.140Z,70.38
2022-10-30T05:55:41.542Z,70.99
2022-10-30T05:58:12.315Z,70.74
2022-10-30T06:00:41.641Z,70.78
2022-10-30T06:03:12.844Z,70.60
2022-10-30T06:05:41.576Z,70.58
2022-10-30T06:08:09.185Z,70.66
2022-10-30T06:10:37.722Z,70.89
2022-10-30T06:13:07.775Z,71.48
2022-10-30T06:15:35.080Z,71.48
2022-10-30T06:18:02.726Z,71.75
2022-10-30T06:20:31.314Z,71.86
2022-10-30T06:23:06.882Z,71.09
2022-10-30T06:25:41.088Z,71.43
2022-10-30T06:28:11.563Z,71.82
2022-10-30T06:30:39.781Z,71.62
2022-10-30T06:33:07.822Z,71.13
2022-10-30T06:35:35.204Z,71.39
2022-10-30T06:38:02.581Z,71.53
2022-10-30T06:40:30.571Z,71.65
2022-10-30T06:42:58.719Z,71.19
2022-10-30T06:45:26.577Z,71.63
2022-10-30T06:47:53.929Z,71.79
2022-10-30T06:50:24.127Z,71.65
2022-10-30T06:52:51.783Z,71.06
2022-10-30T06:55:19.773Z,71.67
2022-10-30T06:57:53.088Z,71.08
2022-10-30T07:00:20.464Z,71.67
2022-10-30T07:03:01.474Z,71.71
2022-10-30T07:05:29.535Z,71.10
2022-10-30T07:07:58.026Z,71.20
2022-10-30T07:10:25.410Z,70.98
2022-10-30T07:12:56.504Z,70.98
2022-10-30T07:15:24.407Z,70.94
2022-10-30T07:18:04.219Z,71.22
2022-10-30T07:20:34.983Z,71.03
2022-10-30T07:23:03.533Z,70.87
2022-10-30T07:25:30.987Z,70.87
2022-10-30T07:28:03.084Z,71.01
2022-10-30T07:30:30.617Z,71.12
2022-10-30T07:33:08.366Z,70.65
2022-10-30T07:35:36.889Z,70.56
2022-10-30T07:38:10.535Z,70.48
2022-10-30T07:40:38.392Z,69.68
2022-10-30T07:43:06.419Z,69.70
2022-10-30T07:45:34.454Z,70.60
2022-10-30T07:48:02.393Z,69.29
2022-10-30T07:50:30.430Z,69.15
2022-10-30T07:52:58.023Z,69.09
2022-10-30T07:55:25.298Z,68.83
2022-10-30T07:57:52.572Z,69.07
2022-10-30T08:00:20.296Z,68.75
2022-10-30T08:02:57.847Z,68.21
2022-10-30T08:05:28.862Z,68.52
2022-10-30T08:07:58.387Z,68.04
2022-10-30T08:10:26.142Z,67.73
2022-10-30T08:12:53.657Z,67.17
2022-10-30T08:15:21.002Z,67.04
2022-10-30T08:17:50.696Z,66.40
2022-10-30T08:20:23.779Z,66.17
2022-10-30T08:22:58.080Z,65.73
2022-10-30T08:25:30.533Z,65.36
2022-10-30T08:28:07.855Z,64.99
2022-10-30T08:30:37.497Z,64.58
2022-10-30T08:33:13.638Z,63.98
2022-10-30T08:35:58.868Z,63.51
2022-10-30T08:38:29.330Z,63.21
2022-10-30T08:40:56.602Z,62.79
2022-10-30T08:43:25.293Z,62.79
2022-10-30T08:45:52.570Z,62.49
2022-10-30T08:48:19.935Z,61.64
2022-10-30T08:50:47.212Z,61.49
2022-10-30T08:53:15.887Z,61.47
2022-10-30T08:55:43.591Z,61.34
2022-10-30T08:58:11.132Z,61.54
2022-10-30T09:00:38.902Z,61.49
2022-10-30T09:03:06.248Z,60.80
2022-10-30T09:05:33.547Z,61.21
2022-10-30T09:08:01.737Z,61.12
2022-10-30T09:10:30.638Z,60.78
2022-10-30T09:13:00.045Z,59.61
2022-10-30T09:15:27.600Z,59.37
2022-10-30T09:18:04.326Z,58.70
2022-10-30T09:20:32.011Z,59.00
2022-10-30T09:22:59.663Z,59.35
2022-10-30T09:25:27.249Z,58.43
2022-10-30T09:27:54.510Z,58.69
2022-10-30T09:30:22.206Z,58.24
2022-10-30T09:33:04.952Z,57.93
2022-10-30T09:35:33.030Z,57.95
2022-10-30T09:38:00.569Z,57.80
2022-10-30T09:41:30.694Z,57.82
2022-10-30T09:44:45.815Z,57.03
2022-10-30T09:48:31.460Z,56.29
2022-10-30T09:52:28.038Z,55.80
2022-10-30T09:55:42.623Z,55.42
2022-10-30T09:58:46.887Z,54.58
2022-10-30T10:02:18.565Z,53.79
2022-10-30T10:04:54.870Z,53.02
2022-10-30T10:07:39.287Z,53.49
2022-10-30T10:10:40.289Z,52.68
2022-10-30T10:13:53.635Z,52.50
2022-10-30T10:16:36.749Z,52.72
2022-10-30T10:19:56.301Z,51.24
2022-10-30T10:22:43.875Z,51.82
2022-10-30T10:25:19.129Z,51.56
2022-10-30T10:28:47.614Z,51.43
2022-10-30T10:31:58.326Z,51.23
2022-10-30T10:35:19.408Z,51.40
2022-10-30T10:38:53.064Z,51.24
2022-10-30T10:41:56.740Z,51.91
2022-10-30T10:45:33.376Z,51.43
2022-10-30T10:49:17.882Z,51.51
2022-10-30T10:51:59.593Z,51.75
2022-10-30T10:55:02.455Z,51.70
2022-10-30T10:57:38.072Z,51.41
2022-10-30T11:00:20.791Z,51.06
2022-10-30T11:03:21.406Z,51.08
2022-10-30T11:05:58.694Z,50.42
2022-10-30T11:08:34.855Z,50.58
2022-10-30T11:11:07.616Z,50.54
2022-10-30T11:13:45.459Z,50.99
2022-10-30T11:16:51.650Z,50.56
2022-10-30T11:19:19.754Z,50.64
2022-10-30T11:21:53.306Z,50.64
2022-10-30T11:24:34.229Z,50.31
2022-10-30T11:27:24.412Z,50.40
2022-10-30T11:30:07.003Z,49.95
2022-10-30T11:32:35.420Z,50.11
2022-10-30T11:35:19.983Z,49.61
2022-10-30T11:37:52.294Z,49.06
2022-10-30T11:40:25.627Z,49.30
2022-10-30T11:43:05.011Z,48.57
2022-10-30T11:45:41.800Z,51.17
2022-10-30T11:48:33.898Z,48.65
2022-10-30T11:51:03.968Z,48.99
2022-10-30T11:53:48.988Z,48.18
2022-10-30T11:56:23.808Z,48.45
2022-10-30T11:58:57.126Z,50.40
2022-10-30T12:01:39.189Z,48.24
2022-10-30T12:04:31.955Z,48.08
2022-10-30T12:07:23.561Z,47.91
2022-10-30T12:09:51.003Z,48.26
2022-10-30T12:12:38.752Z,48.15
2022-10-30T12:15:37.678Z,47.95
2022-10-30T12:18:16.979Z,47.78
2022-10-30T12:20:52.615Z,47.64
2022-10-30T12:23:25.900Z,47.30
2022-10-30T12:25:59.115Z,47.13
2022-10-30T12:28:32.963Z,46.57
2022-10-30T12:31:20.905Z,46.51
2022-10-30T12:34:22.691Z,46.73
2022-10-30T12:37:03.982Z,46.67
2022-10-30T12:40:01.810Z,45.86
2022-10-30T12:42:31.191Z,46.42
2022-10-30T12:45:32.821Z,45.71
2022-10-30T12:48:37.425Z,45.90
2022-10-30T12:52:03.615Z,46.28
2022-10-30T12:54:56.677Z,46.04
2022-10-30T12:57:41.378Z,45.94
2022-10-30T13:00:17.527Z,45.44
2022-10-30T13:03:19.715Z,46.14
2022-10-30T13:06:09.817Z,46.40
2022-10-30T13:09:27.487Z,45.70
2022-10-30T13:12:19.603Z,45.07
2022-10-30T13:15:10.967Z,45.92
2022-10-30T13:17:38.236Z,46.09
2022-10-30T13:20:15.376Z,45.22
2022-10-30T13:23:31.615Z,45.49
2022-10-30T13:26:14.903Z,46.23
2022-10-30T13:29:31.650Z,46.69
2022-10-30T13:33:00.527Z,46.83
2022-10-30T13:35:59.558Z,46.60
2022-10-30T13:38:59.786Z,47.34
2022-10-30T13:41:53.226Z,47.08
2022-10-30T13:45:02.662Z,47.28
2022-10-30T13:47:59.606Z,47.68
2022-10-30T13:51:08.912Z,47.92
2022-10-30T13:53:41.415Z,48.44
2022-10-30T13:56:17.710Z,48.39
2022-10-30T13:59:28.945Z,48.45
2022-10-30T14:02:38.761Z,48.39
2022-10-30T14:06:16.064Z,49.02
2022-10-30T14:09:39.564Z,49.15
2022-10-30T14:13:26.861Z,49.46
2022-10-30T14:16:27.202Z,49.31
2022-10-30T14:19:16.309Z,49.13
2022-10-30T14:21:58.303Z,49.37
2022-10-30T14:24:34.571Z,49.32
2022-10-30T14:27:04.771Z,49.35
2022-10-30T14:29:35.045Z,49.49
2022-10-30T14:32:14.107Z,49.45
2022-10-30T14:34:51.823Z,49.56
2022-10-30T14:37:28.077Z,49.60
2022-10-30T14:39:57.243Z,49.56
2022-10-30T14:42:53.230Z,49.51
2022-10-30T14:45:39.104Z,49.52
2022-10-30T14:48:59.876Z,49.82
2022-10-30T14:51:49.756Z,50.01
2022-10-30T14:54:56.918Z,49.85
2022-10-30T14:57:52.136Z,49.87
2022-10-30T15:00:25.905Z,50.14
2022-10-30T15:03:16.328Z,50.14
2022-10-30T15:06:01.356Z,49.92
2022-10-30T15:09:15.659Z,49.86
2022-10-30T15:12:08.836Z,49.82
2022-10-30T15:14:54.839Z,49.77
2022-10-30T15:17:43.366Z,49.73
2022-10-30T15:20:40.323Z,49.48
2022-10-30T15:23:30.124Z,49.42
2022-10-30T15:26:09.228Z,49.19
2022-10-30T15:28:38.813Z,49.10
2022-10-30T15:31:27.222Z,49.24
2022-10-30T15:33:57.878Z,49.70
2022-10-30T15:36:41.040Z,49.47
2022-10-30T15:39:19.806Z,49.56
2022-10-30T15:42:01.960Z,49.87
2022-10-30T15:44:45.483Z,50.05
2022-10-30T15:47:20.983Z,50.24
2022-10-30T15:49:55.949Z,50.60
2022-10-30T15:52:31.746Z,50.78
2022-10-30T15:55:10.309Z,51.20
2022-10-30T15:58:08.149Z,51.50
2022-10-30T16:00:38.128Z,51.65
2022-10-30T16:03:17.936Z,51.87
2022-10-30T16:05:45.290Z,52.26
2022-10-30T16:08:24.657Z,52.37
2022-10-30T16:10:56.044Z,52.90
2022-10-30T16:13:30.464Z,53.19
2022-10-30T16:15:58.721Z,53.07
2022-10-30T16:18:36.330Z,53.13
2022-10-30T16:21:09.468Z,53.12
2022-10-30T16:23:53.688Z,53.49
2022-10-30T16:26:39.537Z,53.94
2022-10-30T16:29:21.179Z,53.87
2022-10-30T16:31:49.976Z,54.45
2022-10-30T16:34:36.542Z,54.78
2022-10-30T16:37:07.194Z,54.98
2022-10-30T16:39:37.018Z,55.40
2022-10-30T16:42:04.707Z,56.08
2022-10-30T16:44:36.233Z,56.20
2022-10-30T16:47:18.593Z,56.43
2022-10-30T16:49:57.671Z,56.74
2022-10-30T16:52:37.958Z,57.00
2022-10-30T16:55:24.495Z,57.33
2022-10-30T16:57:58.695Z,58.21
2022-10-30T17:00:32.733Z,57.83
2022-10-30T17:03:11.603Z,58.26
2022-10-30T17:05:42.390Z,58.45
2022-10-30T17:08:18.613Z,58.46
2022-10-30T17:10:48.484Z,58.83
2022-10-30T17:13:43.159Z,58.77
2022-10-30T17:16:30.215Z,59.85
2022-10-30T17:19:21.335Z,59.58
2022-10-30T17:21:53.123Z,60.00
2022-10-30T17:24:35.774Z,60.11
2022-10-30T17:27:23.410Z,59.90
2022-10-30T17:29:50.666Z,59.96
2022-10-30T17:32:43.866Z,59.77
2022-10-30T17:35:19.351Z,60.15
2022-10-30T17:37:46.935Z,60.28
2022-10-30T17:40:15.199Z,60.25
2022-10-30T17:42:42.616Z,60.28
2022-10-30T17:45:15.245Z,60.54
2022-10-30T17:47:42.577Z,60.83
2022-10-30T17:50:10.545Z,60.99
2022-10-30T17:52:37.870Z,60.76
2022-10-30T17:55:28.329Z,61.36
2022-10-30T17:57:58.833Z,61.09
2022-10-30T18:00:26.223Z,61.09
2022-10-30T18:02:53.526Z,60.96
2022-10-30T18:05:25.917Z,61.31
2022-10-30T18:07:53.189Z,60.99
2022-10-30T18:10:20.448Z,60.86
2022-10-30T18:12:47.722Z,61.97
2022-10-30T18:15:40.890Z,62.26
2022-10-30T18:18:08.173Z,61.55
2022-10-30T18:20:36.682Z,61.67
2022-10-30T18:23:25.527Z,62.25
2022-10-30T18:26:00.071Z,62.08
2022-10-30T18:28:28.171Z,62.20
2022-10-30T18:31:01.109Z,62.57
2022-10-30T18:33:28.394Z,62.69
2022-10-30T18:35:57.532Z,63.04
2022-10-30T18:38:24.896Z,63.21
2022-10-30T18:40:52.249Z,63.87
2022-10-30T18:43:19.659Z,65.11
2022-10-30T18:45:46.938Z,64.41
2022-10-30T18:48:14.227Z,64.48
2022-10-30T18:50:43.020Z,65.08
2022-10-30T18:53:19.673Z,64.89
2022-10-30T18:58:34.990Z,65.66
2022-10-30T19:01:17.841Z,66.38
2022-10-30T19:03:46.940Z,65.98
2022-10-30T19:06:22.789Z,66.14
2022-10-30T19:08:50.894Z,65.79
2022-10-30T19:11:24.552Z,66.30
2022-10-30T19:13:53.985Z,65.94
2022-10-30T19:16:25.160Z,66.24
2022-10-30T19:18:53.016Z,66.17
2022-10-30T19:21:27.868Z,65.86
2022-10-30T19:23:56.288Z,66.88
2022-10-30T19:26:23.591Z,67.20
2022-10-30T19:28:50.868Z,66.51
2022-10-30T19:31:20.195Z,66.86
2022-10-30T19:33:51.476Z,67.03
2022-10-30T19:36:36.996Z,67.02
2022-10-30T19:39:12.971Z,66.91
2022-10-30T19:41:41.171Z,67.39
2022-10-30T19:44:08.879Z,67.32
2022-10-30T19:46:37.389Z,66.98
2022-10-30T19:49:19.430Z,66.69
2022-10-30T19:51:47.460Z,66.79
2022-10-30T19:54:14.868Z,67.17
2022-10-30T19:56:43.909Z,66.43
2022-10-30T19:59:14.939Z,66.16
2022-10-30T20:01:44.620Z,66.61
2022-10-30T20:04:12.359Z,66.88
2022-10-30T20:06:39.731Z,66.93
2022-10-30T20:09:11.527Z,66.85
2022-10-30T20:11:38.811Z,67.38
2022-10-30T20:14:06.071Z,67.72
2022-10-30T20:16:33.332Z,67.56
2022-10-30T20:19:00.583Z,67.72
2022-10-30T20:21:30.828Z,67.70
2022-10-30T20:23:58.084Z,68.07
2022-10-30T20:26:29.599Z,68.34
2022-10-30T20:29:03.163Z,68.14
2022-10-30T20:31:30.417Z,68.15
2022-10-30T20:33:57.684Z,67.79
2022-10-30T20:36:24.946Z,68.00
2022-10-30T20:38:52.341Z,67.91
2022-10-30T20:41:28.048Z,68.12
2022-10-30T20:43:55.513Z,68.68
2022-10-30T20:46:22.830Z,67.95
2022-10-30T20:48:50.142Z,67.97
2022-10-30T20:51:17.438Z,68.20
2022-10-30T20:53:44.776Z,68.17
2022-10-30T20:56:12.189Z,68.20
2022-10-30T20:58:40.985Z,68.41
2022-10-30T21:01:08.699Z,69.04
2022-10-30T21:03:36.159Z,68.69
2022-10-30T21:06:03.653Z,68.78
2022-10-30T21:08:32.091Z,68.55
2022-10-30T21:11:02.322Z,69.13
2022-10-30T21:13:30.051Z,69.33
2022-10-30T21:16:04.651Z,69.24
2022-10-30T21:18:32.459Z,69.29
2022-10-30T21:21:11.461Z,69.25
2022-10-30T21:23:38.888Z,68.96
2022-10-30T21:26:10.924Z,68.77
2022-10-30T21:28:40.886Z,69.00
2022-10-30T21:31:13.244Z,69.41
2022-10-30T21:33:40.892Z,69.24
2022-10-30T21:36:16.761Z,70.00
2022-10-30T21:38:44.862Z,70.08
2022-10-30T21:41:17.309Z,69.33
2022-10-30T21:43:51.332Z,69.68
2022-10-30T21:46:20.687Z,70.28
2022-10-30T21:48:48.217Z,69.98
2022-10-30T21:51:26.927Z,69.86
2022-10-30T21:53:56.074Z,69.42
2022-10-30T21:56:28.834Z,70.29
2022-10-30T21:59:04.745Z,69.73
2022-10-30T22:01:36.892Z,70.03
2022-10-30T22:04:09.105Z,69.90
2022-10-30T22:06:44.080Z,70.31
2022-10-30T22:09:16.158Z,70.18
2022-10-30T22:11:44.064Z,69.42
2022-10-30T22:14:11.748Z,69.88
2022-10-30T22:16:40.024Z,70.78
2022-10-30T22:19:10.159Z,70.71
2022-10-30T22:21:37.511Z,70.50
2022-10-30T22:24:07.096Z,70.46
2022-10-30T22:26:34.386Z,70.59
2022-10-30T22:29:01.776Z,71.18
2022-10-30T22:31:30.256Z,71.19
2022-10-30T22:34:01.283Z,70.81
2022-10-30T22:36:33.254Z,71.42
2022-10-30T22:39:12.289Z,70.69
2022-10-30T22:41:40.278Z,70.72
2022-10-30T22:44:14.674Z,70.73
2022-10-30T22:46:41.975Z,70.86
2022-10-30T22:49:09.612Z,70.65
2022-10-30T22:51:39.661Z,70.63
2022-10-30T22:54:14.322Z,70.77
2022-10-30T22:56:42.265Z,70.99
2022-10-30T22:59:13.803Z,71.37
2022-10-30T23:01:43.285Z,71.45
2022-10-30T23:04:15.051Z,71.45
2022-10-30T23:06:44.158Z,71.86
2022-10-30T23:09:23.352Z,71.61
2022-10-30T23:11:50.968Z,71.64
2022-10-30T23:14:19.026Z,71.40
2022-10-30T23:16:46.327Z,71.13
2022-10-30T23:19:13.592Z,71.04
2022-10-30T23:21:40.861Z,71.56
2022-10-30T23:24:09.659Z,71.84
2022-10-30T23:26:38.177Z,71.29
2022-10-30T23:29:05.908Z,70.73
2022-10-30T23:31:43.398Z,70.55
2022-10-30T23:34:16.610Z,70.90
2022-10-30T23:36:44.675Z,70.62
2022-10-30T23:39:17.872Z,70.58
2022-10-30T23:41:45.556Z,70.57
2022-10-30T23:44:15.905Z,70.48
2022-10-30T23:46:43.719Z,70.90
2022-10-30T23:49:11.378Z,70.36
2022-10-30T23:51:39.039Z,70.30
2022-10-30T23:54:06.371Z,70.15
2022-10-30T23:56:33.663Z,70.55
2022-10-30T23:59:01.282Z,70.81
